Time;durP1;ratioP1;P1;durP2;ratioP2;P2;SDS_P1;SDS_P2;PMS_P1;PMS_P2;Temp;Humidity;BMP_temperature;BMP_pressure;BME280_temperature;BME280_humidity;BME280_pressure;Samples;Min_cycle;Max_cycle;Signal;HPM_P1;HPM_P2
2023/09/02 00:00:55;;;;;;;9.30;6.60;;;14.70;99.90;;;;;;5094878;28;20401;-77
2023/09/02 00:03:21;;;;;;;9.40;6.63;;;14.90;99.90;;;;;;5078417;28;20404;-76
2023/09/02 00:05:47;;;;;;;10.45;7.40;;;14.60;99.90;;;;;;5118746;27;20416;-77
2023/09/02 00:08:13;;;;;;;9.88;7.10;;;14.50;99.90;;;;;;5097066;28;20420;-77
2023/09/02 00:10:38;;;;;;;9.20;7.00;;;14.60;99.90;;;;;;5098105;28;20486;-76
2023/09/02 00:13:04;;;;;;;11.47;7.30;;;14.60;99.90;;;;;;5098302;28;20752;-76
2023/09/02 00:15:30;;;;;;;10.88;7.15;;;14.60;99.90;;;;;;5101048;28;20428;-77
2023/09/02 00:17:55;;;;;;;11.05;7.07;;;14.50;99.90;;;;;;5098255;28;20528;-77
2023/09/02 00:20:21;;;;;;;11.20;7.70;;;;;;;;;;5104540;27;20418;-77
2023/09/02 00:22:47;;;;;;;12.68;7.55;;;14.40;99.90;;;;;;5111878;27;20452;-77
2023/09/02 00:25:13;;;;;;;11.87;8.10;;;14.50;99.90;;;;;;5094843;28;20413;-75
2023/09/02 00:27:38;;;;;;;11.80;7.47;;;14.50;99.90;;;;;;5130260;28;20397;-76
2023/09/02 00:30:05;;;;;;;9.20;6.95;;;14.50;99.90;;;;;;5115891;28;20405;-76
2023/09/02 00:32:30;;;;;;;11.30;7.30;;;14.50;99.90;;;;;;5065844;28;20394;-76
2023/09/02 00:34:56;;;;;;;10.87;7.70;;;14.30;99.90;;;;;;5088225;28;20909;-76
2023/09/02 00:37:22;;;;;;;12.15;8.07;;;14.40;99.90;;;;;;5127987;27;20511;-75
2023/09/02 00:39:48;;;;;;;13.40;8.40;;;14.30;99.90;;;;;;5128159;27;20465;-76
2023/09/02 00:42:16;;;;;;;13.32;8.20;;;;;;;;;;5111318;28;20394;-76
2023/09/02 00:44:42;;;;;;;13.25;8.57;;;14.40;99.90;;;;;;5094432;28;20408;-76
2023/09/02 00:47:08;;;;;;;14.03;8.13;;;14.30;99.90;;;;;;5112579;28;20421;-76
2023/09/02 00:49:33;;;;;;;11.83;8.23;;;14.30;99.90;;;;;;5112307;28;20439;-77
2023/09/02 00:51:59;;;;;;;12.52;8.25;;;14.20;99.90;;;;;;5096126;28;20400;-76
2023/09/02 00:54:25;;;;;;;11.30;8.00;;;;;;;;;;5113317;28;20404;-76
2023/09/02 00:56:51;;;;;;;11.32;7.80;;;;;;;;;;5112565;28;20432;-76
2023/09/02 00:59:17;;;;;;;10.87;8.43;;;14.20;99.90;;;;;;5112552;28;20404;-76
2023/09/02 01:01:45;;;;;;;12.00;7.97;;;14.30;99.90;;;;;;5110969;28;21070;-77
2023/09/02 01:04:11;;;;;;;12.00;8.30;;;14.10;99.90;;;;;;5095219;28;20443;-76
2023/09/02 01:06:39;;;;;;;11.43;7.80;;;14.20;99.90;;;;;;5095537;28;20462;-76
2023/09/02 01:09:05;;;;;;;10.88;7.90;;;14.20;99.90;;;;;;5112021;28;20425;-76
2023/09/02 01:11:33;;;;;;;11.35;8.13;;;14.00;99.90;;;;;;5127065;27;20423;-77
2023/09/02 01:14:01;;;;;;;10.63;7.93;;;14.30;99.90;;;;;;5095455;28;20493;-82
2023/09/02 01:16:26;;;;;;;12.73;8.67;;;14.00;99.90;;;;;;5110282;28;20450;-82
2023/09/02 01:18:52;;;;;;;13.60;8.70;;;14.10;99.90;;;;;;5095073;28;20440;-77
2023/09/02 01:21:18;;;;;;;12.07;8.40;;;14.10;99.90;;;;;;5094731;28;20408;-77
2023/09/02 01:24:20;;;;;;;13.00;8.80;;;14.00;99.90;;;;;;5111748;28;20490;-77
2023/09/02 01:27:13;;;;;;;12.63;8.90;;;14.10;99.90;;;;;;5094916;28;20407;-76
2023/09/02 01:29:49;;;;;;;14.02;8.80;;;13.90;99.90;;;;;;5090952;28;20434;-77
2023/09/02 01:32:17;;;;;;;13.10;8.80;;;14.00;99.90;;;;;;5091534;28;20406;-77
2023/09/02 01:34:44;;;;;;;10.90;8.30;;;14.00;99.90;;;;;;5125974;28;20470;-76
2023/09/02 01:37:11;;;;;;;13.13;8.75;;;14.10;99.90;;;;;;5091476;28;20475;-76
2023/09/02 01:39:39;;;;;;;12.38;9.50;;;14.00;99.90;;;;;;5091872;28;21015;-77
2023/09/02 01:42:06;;;;;;;12.35;9.10;;;13.80;99.90;;;;;;5058924;28;20409;-77
2023/09/02 01:44:32;;;;;;;13.17;9.73;;;13.60;99.90;;;;;;5077074;28;20534;-77
2023/09/02 01:47:01;;;;;;;13.97;10.30;;;;;;;;;;5065629;27;1794447;-77
2023/09/02 01:49:28;;;;;;;13.37;9.40;;;13.70;99.90;;;;;;5112356;28;20490;-77
2023/09/02 01:51:54;;;;;;;12.23;9.63;;;13.70;99.90;;;;;;5096900;28;20412;-76
2023/09/02 01:54:20;;;;;;;14.45;9.30;;;13.70;99.90;;;;;;5095925;28;20905;-76
2023/09/02 01:56:46;;;;;;;13.27;9.80;;;13.70;99.90;;;;;;5095891;28;20400;-76
2023/09/02 01:59:12;;;;;;;12.77;10.07;;;13.70;99.90;;;;;;5104863;28;20421;-82
2023/09/02 02:01:38;;;;;;;14.37;10.03;;;13.50;99.90;;;;;;5092528;28;20413;-82
2023/09/02 02:04:25;;;;;;;13.47;9.37;;;13.60;99.90;;;;;;5092728;28;20412;-82
2023/09/02 02:06:54;;;;;;;12.88;8.70;;;13.50;99.90;;;;;;5092284;28;20412;-82
2023/09/02 02:09:57;;;;;;;12.57;9.07;;;13.70;99.90;;;;;;5092764;28;20534;-83
2023/09/02 02:12:24;;;;;;;12.63;9.25;;;13.60;99.90;;;;;;5088794;28;20909;-82
2023/09/02 02:14:50;;;;;;;12.27;9.77;;;13.50;99.90;;;;;;5095356;28;20911;-82
2023/09/02 02:17:16;;;;;;;14.33;9.27;;;13.70;99.90;;;;;;5095462;28;20392;-82
2023/09/02 02:19:44;;;;;;;12.20;8.80;;;13.80;99.90;;;;;;5095968;28;20446;-82
2023/09/02 02:22:10;;;;;;;15.45;10.02;;;13.60;99.90;;;;;;5129999;27;20812;-82
2023/09/02 02:24:36;;;;;;;16.00;10.05;;;13.60;99.90;;;;;;5096178;28;20447;-83
2023/09/02 02:27:02;;;;;;;15.13;10.20;;;13.60;99.90;;;;;;5106489;28;20471;-82
2023/09/02 02:29:28;;;;;;;17.98;10.82;;;13.40;99.90;;;;;;5075096;28;20460;-82
2023/09/02 02:31:55;;;;;;;13.68;9.38;;;;;;;;;;5075648;28;20402;-82
2023/09/02 02:34:21;;;;;;;13.45;9.75;;;13.30;99.90;;;;;;5126794;27;20390;-83
2023/09/02 02:36:47;;;;;;;12.27;9.48;;;13.50;99.90;;;;;;5126017;27;20401;-82
2023/09/02 02:39:13;;;;;;;12.57;9.38;;;13.30;99.90;;;;;;5058547;28;20402;-83
2023/09/02 02:41:39;;;;;;;13.48;8.88;;;13.60;99.90;;;;;;5092130;28;20444;-81
2023/09/02 02:44:05;;;;;;;14.40;9.67;;;;;;;;;;5125801;27;20408;-83
2023/09/02 02:46:30;;;;;;;15.40;9.90;;;13.60;99.90;;;;;;5092549;28;20397;-83
2023/09/02 02:48:56;;;;;;;13.25;9.82;;;13.50;99.90;;;;;;5091907;28;20979;-82
2023/09/02 02:51:22;;;;;;;15.15;10.55;;;13.40;99.90;;;;;;5125884;27;20402;-83
2023/09/02 02:53:48;;;;;;;13.67;9.90;;;13.40;99.90;;;;;;5091693;28;20394;-83
2023/09/02 02:56:14;;;;;;;14.48;9.85;;;13.30;99.90;;;;;;5085153;28;20451;-82
2023/09/02 02:58:40;;;;;;;13.57;9.73;;;;;;;;;;5096257;28;20396;-83
2023/09/02 03:01:08;;;;;;;21.63;10.77;;;13.30;99.90;;;;;;5095409;28;20428;-82
2023/09/02 03:03:35;;;;;;;13.75;10.05;;;13.50;99.90;;;;;;5094940;28;20403;-82
2023/09/02 03:06:05;;;;;;;14.57;10.60;;;13.40;99.90;;;;;;5146600;27;20400;-82
2023/09/02 03:08:31;;;;;;;14.88;10.50;;;13.50;99.90;;;;;;5094774;28;20918;-82
2023/09/02 03:11:02;;;;;;;16.35;11.18;;;13.50;99.90;;;;;;5073333;28;20418;-83
2023/09/02 03:13:33;;;;;;;15.10;10.52;;;13.60;99.90;;;;;;5095033;28;20407;-83
2023/09/02 03:16:02;;;;;;;14.85;10.50;;;13.70;99.90;;;;;;5095038;28;20717;-83
2023/09/02 03:18:28;;;;;;;16.65;11.27;;;13.50;99.90;;;;;;5095070;28;20506;-82
2023/09/02 03:20:55;;;;;;;16.10;11.23;;;13.60;99.90;;;;;;5137714;27;20384;-81
2023/09/02 03:23:22;;;;;;;14.63;10.32;;;13.60;99.90;;;;;;5167804;27;20387;-81
2023/09/02 03:25:48;;;;;;;14.23;10.80;;;;;;;;;;5121480;28;20495;-82
2023/09/02 03:28:13;;;;;;;14.65;10.20;;;13.60;99.90;;;;;;5112697;28;20416;-82
2023/09/02 03:30:39;;;;;;;16.75;12.00;;;13.50;99.90;;;;;;5111914;28;20411;-82
2023/09/02 03:33:05;;;;;;;15.02;10.35;;;13.30;99.90;;;;;;5095213;28;20400;-82
2023/09/02 03:35:38;;;;;;;15.48;11.13;;;13.30;99.90;;;;;;5115476;28;20922;-82
2023/09/02 03:38:04;;;;;;;17.90;11.15;;;13.60;99.90;;;;;;5154875;27;20419;-80
2023/09/02 03:40:30;;;;;;;15.70;11.55;;;13.50;99.90;;;;;;5098564;28;20404;-82
2023/09/02 03:42:56;;;;;;;15.57;11.25;;;13.30;99.90;;;;;;5117066;28;20721;-82
2023/09/02 03:45:21;;;;;;;17.17;11.18;;;13.60;99.90;;;;;;5095295;28;20411;-83
2023/09/02 03:47:47;;;;;;;15.63;11.52;;;13.60;99.90;;;;;;5077753;28;20947;-82
2023/09/02 03:50:13;;;;;;;15.43;11.30;;;13.60;99.90;;;;;;5088269;28;20508;-83
2023/09/02 03:52:38;;;;;;;14.60;10.87;;;13.60;99.90;;;;;;5091039;28;20440;-82
2023/09/02 03:55:04;;;;;;;15.83;11.03;;;13.70;99.90;;;;;;5091232;28;20398;-82
2023/09/02 03:57:31;;;;;;;17.25;11.65;;;13.50;99.90;;;;;;5091231;28;20489;-82
2023/09/02 03:59:56;;;;;;;14.77;10.95;;;13.70;99.90;;;;;;5090895;28;20413;-82
2023/09/02 04:02:22;;;;;;;16.70;11.60;;;13.80;99.90;;;;;;5107869;28;20398;-82
2023/09/02 04:04:48;;;;;;;16.67;11.00;;;;;;;;;;5090939;28;20409;-81
2023/09/02 04:07:14;;;;;;;17.50;11.93;;;13.50;99.90;;;;;;5091223;28;20473;-83
2023/09/02 04:09:39;;;;;;;18.02;11.20;;;13.70;99.90;;;;;;5125130;28;20575;-82
2023/09/02 04:12:06;;;;;;;15.23;11.30;;;13.60;99.90;;;;;;5092907;28;20432;-82
2023/09/02 04:14:31;;;;;;;16.17;11.30;;;13.50;99.90;;;;;;5078199;28;20401;-82
2023/09/02 04:16:58;;;;;;;15.30;11.83;;;13.50;99.90;;;;;;5060548;28;20929;-82
2023/09/02 04:19:24;;;;;;;16.10;12.20;;;13.70;99.90;;;;;;5094118;28;20413;-83
2023/09/02 04:21:52;;;;;;;17.50;12.27;;;13.50;99.90;;;;;;5094740;28;20398;-77
2023/09/02 04:24:18;;;;;;;17.90;12.05;;;13.50;99.90;;;;;;5111360;28;20463;-77
2023/09/02 04:26:43;;;;;;;18.75;12.95;;;13.60;99.90;;;;;;5094250;28;20808;-76
2023/09/02 04:29:09;;;;;;;18.53;13.00;;;13.40;99.90;;;;;;5076625;28;20417;-77
2023/09/02 04:31:35;;;;;;;18.80;12.93;;;13.60;99.90;;;;;;5095311;28;20948;-77
2023/09/02 04:34:01;;;;;;;20.63;13.95;;;;;;;;;;5083235;28;20490;-76
2023/09/02 04:36:26;;;;;;;18.73;12.90;;;13.50;99.90;;;;;;5128557;27;20415;-76
2023/09/02 04:38:52;;;;;;;17.60;12.65;;;13.40;99.90;;;;;;5094032;28;20857;-77
2023/09/02 04:41:18;;;;;;;15.10;11.38;;;13.40;99.90;;;;;;5093600;28;20441;-77
2023/09/02 04:43:43;;;;;;;16.00;11.75;;;13.20;99.90;;;;;;5094078;28;20405;-82
2023/09/02 04:46:10;;;;;;;17.63;12.53;;;;;;;;;;5093745;28;20478;-82
2023/09/02 04:48:35;;;;;;;17.42;11.77;;;13.40;99.90;;;;;;5076882;28;20430;-82
2023/09/02 04:51:03;;;;;;;19.13;12.18;;;13.20;99.90;;;;;;5127799;27;20394;-83
2023/09/02 04:53:29;;;;;;;19.30;12.50;;;13.40;99.90;;;;;;5097761;28;20412;-82
2023/09/02 04:55:55;;;;;;;17.20;12.30;;;;;;;;;;5097518;28;20400;-83
2023/09/02 04:58:22;;;;;;;17.80;11.98;;;13.10;99.90;;;;;;5097703;28;20400;-84
2023/09/02 05:00:48;;;;;;;17.50;11.30;;;;;;;;;;5098653;28;20412;-83
2023/09/02 05:03:14;;;;;;;16.67;11.27;;;13.30;99.90;;;;;;5095113;28;20853;-84
2023/09/02 05:05:40;;;;;;;17.40;10.73;;;13.30;99.90;;;;;;5081044;28;20432;-84
2023/09/02 05:08:06;;;;;;;17.52;11.45;;;13.30;99.90;;;;;;5096976;28;20424;-84
2023/09/02 05:10:33;;;;;;;18.83;11.52;;;13.30;99.90;;;;;;5148620;27;20402;-84
2023/09/02 05:12:59;;;;;;;16.42;10.70;;;13.40;99.90;;;;;;5148023;27;20479;-84
2023/09/02 05:15:25;;;;;;;15.65;10.60;;;13.40;99.90;;;;;;5097134;28;20479;-83
2023/09/02 05:17:51;;;;;;;14.68;10.63;;;13.40;99.90;;;;;;5095193;28;20854;-83
2023/09/02 05:20:17;;;;;;;21.98;11.60;;;13.40;99.90;;;;;;5148447;27;20396;-83
2023/09/02 05:22:43;;;;;;;17.17;11.13;;;;;;;;;;5097586;28;20907;-83
2023/09/02 05:25:09;;;;;;;16.42;11.00;;;13.40;99.90;;;;;;5114330;28;20407;-83
2023/09/02 05:27:38;;;;;;;16.27;11.10;;;;;;;;;;5114620;27;20851;-83
2023/09/02 05:30:05;;;;;;;17.75;11.18;;;13.50;99.90;;;;;;5097956;28;20424;-83
2023/09/02 05:32:31;;;;;;;15.02;11.23;;;13.40;99.90;;;;;;5100912;28;20493;-83
2023/09/02 05:34:56;;;;;;;16.63;10.97;;;13.40;99.90;;;;;;5079302;28;20410;-83
2023/09/02 05:37:22;;;;;;;16.03;11.43;;;13.50;99.90;;;;;;5078698;28;20394;-83
2023/09/02 05:39:48;;;;;;;16.23;11.43;;;13.30;99.90;;;;;;5094535;28;20408;-82
2023/09/02 05:42:14;;;;;;;17.67;11.73;;;;;;;;;;5060300;28;20908;-83
2023/09/02 05:44:41;;;;;;;17.15;11.77;;;;;;;;;;5094282;28;20411;-83
2023/09/02 05:47:07;;;;;;;17.98;12.63;;;13.50;99.90;;;;;;5095067;28;20430;-82
2023/09/02 05:49:36;;;;;;;17.10;11.80;;;13.50;99.90;;;;;;5094423;28;20414;-82
2023/09/02 05:52:06;;;;;;;17.67;11.82;;;13.40;99.90;;;;;;5094079;28;20406;-82
2023/09/02 05:54:32;;;;;;;19.00;13.13;;;;;;;;;;5114412;28;20413;-82
2023/09/02 05:56:58;;;;;;;18.63;13.13;;;;;;;;;;5094764;28;20441;-82
2023/09/02 05:59:24;;;;;;;16.20;11.50;;;13.40;99.90;;;;;;5094381;28;20513;-83
2023/09/02 06:01:50;;;;;;;17.37;12.27;;;13.50;99.90;;;;;;5131718;27;20485;-83
2023/09/02 06:04:16;;;;;;;19.45;12.38;;;13.80;99.90;;;;;;5127987;27;20450;-76
2023/09/02 06:06:42;;;;;;;17.90;12.67;;;13.70;99.90;;;;;;5096363;28;20435;-75
2023/09/02 06:09:10;;;;;;;19.05;13.32;;;13.90;99.90;;;;;;5112486;28;20532;-78
2023/09/02 06:11:35;;;;;;;18.30;12.88;;;13.90;99.90;;;;;;5141293;27;20440;-77
2023/09/02 06:14:02;;;;;;;18.93;12.37;;;14.20;99.90;;;;;;5091725;28;20907;-77
2023/09/02 06:16:27;;;;;;;18.85;13.00;;;14.20;99.90;;;;;;5147758;27;20984;-76
2023/09/02 06:18:53;;;;;;;18.58;12.35;;;14.30;99.90;;;;;;5096351;28;20495;-77
2023/09/02 06:21:19;;;;;;;18.30;12.27;;;14.40;99.90;;;;;;5096421;28;20533;-77
2023/09/02 06:23:45;;;;;;;19.40;12.67;;;14.40;99.90;;;;;;5095756;28;20487;-77
2023/09/02 06:26:11;;;;;;;17.93;12.77;;;14.50;99.90;;;;;;5078174;28;20923;-77
2023/09/02 06:28:38;;;;;;;16.75;12.75;;;14.40;99.90;;;;;;5147431;27;20925;-78
2023/09/02 06:31:08;;;;;;;19.48;13.13;;;14.90;99.90;;;;;;5103377;28;20399;-79
2023/09/02 06:33:34;;;;;;;19.50;13.55;;;14.70;99.90;;;;;;5115549;28;20447;-78
2023/09/02 06:36:08;;;;;;;18.43;13.83;;;14.70;99.90;;;;;;5122979;28;20436;-77
2023/09/02 06:38:33;;;;;;;19.60;13.90;;;14.70;99.90;;;;;;5115406;27;20400;-77
2023/09/02 06:40:59;;;;;;;17.27;12.85;;;15.10;99.90;;;;;;5088072;28;20421;-77
2023/09/02 06:43:25;;;;;;;21.05;12.52;;;15.20;99.90;;;;;;5092914;28;20909;-77
2023/09/02 06:45:50;;;;;;;19.37;13.00;;;15.40;99.90;;;;;;5098087;28;20461;-77
2023/09/02 06:48:16;;;;;;;18.77;13.67;;;15.20;99.90;;;;;;5110121;28;20430;-76
2023/09/02 06:50:46;;;;;;;18.07;13.33;;;15.40;99.90;;;;;;5143725;27;20418;-78
2023/09/02 06:53:11;;;;;;;21.08;14.35;;;15.80;99.90;;;;;;5093640;28;20421;-78
2023/09/02 06:55:37;;;;;;;19.45;14.13;;;15.90;99.90;;;;;;5076443;28;20405;-76
2023/09/02 06:58:03;;;;;;;19.23;13.67;;;16.00;99.90;;;;;;5092378;28;20405;-78
2023/09/02 07:00:29;;;;;;;23.00;14.73;;;16.20;99.90;;;;;;5092518;28;20410;-75
2023/09/02 07:02:54;;;;;;;22.47;15.10;;;16.50;99.90;;;;;;5093151;28;20413;-84
2023/09/02 07:05:20;;;;;;;19.52;14.68;;;16.30;99.90;;;;;;5080632;28;20836;-84
2023/09/02 07:07:46;;;;;;;20.70;15.13;;;16.60;99.90;;;;;;5076924;28;20390;-84
2023/09/02 07:10:11;;;;;;;19.23;14.80;;;16.40;99.90;;;;;;5121261;28;20929;-83
2023/09/02 07:12:37;;;;;;;20.50;15.40;;;16.80;99.90;;;;;;5145139;27;20424;-77
2023/09/02 07:15:03;;;;;;;20.15;14.52;;;16.60;99.90;;;;;;5112052;28;20867;-77
2023/09/02 07:17:29;;;;;;;20.50;14.95;;;16.80;99.90;;;;;;5084965;28;20414;-75
2023/09/02 07:19:55;;;;;;;20.95;15.40;;;16.80;99.90;;;;;;5126384;27;20402;-76
2023/09/02 07:22:21;;;;;;;20.20;15.52;;;17.10;99.90;;;;;;5075239;28;20467;-77
2023/09/02 07:24:47;;;;;;;23.00;16.27;;;17.50;99.90;;;;;;5074856;28;20731;-77
2023/09/02 07:27:12;;;;;;;22.73;16.65;;;17.40;99.90;;;;;;5075006;28;20422;-77
2023/09/02 07:29:38;;;;;;;19.30;15.25;;;17.40;99.90;;;;;;5075440;28;20430;-77
2023/09/02 07:32:04;;;;;;;20.63;15.88;;;17.80;99.90;;;;;;5058125;28;20401;-76
2023/09/02 07:34:34;;;;;;;20.83;15.53;;;17.60;99.90;;;;;;5091824;28;20405;-77
2023/09/02 07:37:00;;;;;;;21.37;15.33;;;17.90;99.90;;;;;;5074992;28;20402;-76
2023/09/02 07:39:25;;;;;;;23.63;15.20;;;18.10;99.90;;;;;;5108629;28;20540;-77
2023/09/02 07:41:51;;;;;;;22.40;15.83;;;18.00;99.90;;;;;;5070427;28;20413;-76
2023/09/02 07:44:17;;;;;;;19.48;14.63;;;18.00;99.90;;;;;;5091034;28;20768;-76
2023/09/02 07:46:42;;;;;;;20.58;15.20;;;17.90;99.90;;;;;;5095239;28;20392;-76
2023/09/02 07:49:08;;;;;;;23.03;14.77;;;17.70;99.90;;;;;;5115491;28;20966;-77
2023/09/02 07:51:34;;;;;;;20.43;14.83;;;18.00;99.90;;;;;;5082195;28;20481;-77
2023/09/02 07:54:00;;;;;;;20.75;13.80;;;18.20;99.90;;;;;;5115795;27;20407;-78
2023/09/02 07:56:25;;;;;;;20.27;14.13;;;18.40;99.90;;;;;;5115290;28;20749;-77
2023/09/02 07:58:51;;;;;;;19.02;13.98;;;18.50;99.90;;;;;;5098420;28;20483;-84
2023/09/02 08:01:17;;;;;;;21.43;13.20;;;18.40;99.90;;;;;;5115050;28;20811;-77
2023/09/02 08:03:42;;;;;;;19.85;13.13;;;18.80;99.90;;;;;;5114956;28;20400;-77
2023/09/02 08:06:08;;;;;;;19.65;13.23;;;19.10;99.90;;;;;;5114366;28;20766;-77
2023/09/02 08:08:35;;;;;;;17.77;12.25;;;19.10;99.90;;;;;;5097298;28;20432;-77
2023/09/02 08:11:05;;;;;;;19.57;12.33;;;19.40;99.90;;;;;;5145149;27;20492;-77
2023/09/02 08:13:32;;;;;;;17.03;12.13;;;19.70;99.90;;;;;;5077235;28;20394;-77
2023/09/02 08:15:58;;;;;;;16.08;11.73;;;19.50;99.90;;;;;;5111126;28;20480;-77
2023/09/02 08:18:24;;;;;;;15.68;11.68;;;19.70;99.90;;;;;;5111133;28;20450;-77
2023/09/02 08:20:50;;;;;;;16.40;11.63;;;19.90;99.90;;;;;;5111141;27;20412;-77
2023/09/02 08:23:16;;;;;;;17.00;12.07;;;20.10;99.90;;;;;;5076964;28;20398;-77
2023/09/02 08:25:41;;;;;;;18.47;11.80;;;20.00;99.90;;;;;;5093662;27;20421;-77
2023/09/02 08:28:07;;;;;;;16.40;11.60;;;20.40;99.90;;;;;;5093884;28;20443;-77
2023/09/02 08:30:32;;;;;;;15.43;10.73;;;20.30;99.90;;;;;;5077218;28;20414;-77
2023/09/02 08:32:58;;;;;;;16.77;11.20;;;20.50;99.90;;;;;;5077026;28;20397;-77
2023/09/02 08:35:24;;;;;;;15.82;10.50;;;20.50;99.90;;;;;;5076520;28;20422;-78
2023/09/02 08:37:51;;;;;;;16.45;10.93;;;20.70;99.90;;;;;;5076568;28;20394;-78
2023/09/02 08:40:17;;;;;;;17.23;11.02;;;20.60;99.90;;;;;;5127910;27;20928;-77
2023/09/02 08:42:43;;;;;;;15.43;10.63;;;20.70;99.90;;;;;;5110659;28;20481;-78
2023/09/02 08:45:09;;;;;;;16.13;10.07;;;20.80;99.90;;;;;;5076648;28;20402;-78
2023/09/02 08:47:40;;;;;;;15.07;10.40;;;20.80;99.90;;;;;;5092901;28;20414;-77
2023/09/02 08:50:10;;;;;;;16.55;10.93;;;20.90;99.90;;;;;;5076275;28;20414;-78
2023/09/02 08:52:37;;;;;;;14.70;9.82;;;20.70;99.90;;;;;;5093277;28;20429;-77
2023/09/02 08:55:03;;;;;;;13.95;9.90;;;21.00;99.90;;;;;;5092695;28;20885;-77
2023/09/02 08:57:29;;;;;;;14.70;10.18;;;20.90;99.90;;;;;;5127393;27;20433;-77
2023/09/02 08:59:55;;;;;;;14.63;10.25;;;20.60;99.90;;;;;;5076747;28;20413;-77
2023/09/02 09:02:21;;;;;;;13.73;10.05;;;20.50;99.90;;;;;;5076640;28;20402;-77
2023/09/02 09:04:48;;;;;;;16.83;10.38;;;20.50;99.90;;;;;;5075971;28;20433;-77
2023/09/02 09:07:17;;;;;;;16.05;9.85;;;20.40;99.90;;;;;;5127261;27;20406;-77
2023/09/02 09:09:46;;;;;;;15.00;10.48;;;20.20;99.90;;;;;;5127043;27;20514;-77
2023/09/02 09:12:13;;;;;;;17.10;11.07;;;20.20;99.90;;;;;;5067618;28;20490;-77
2023/09/02 09:14:45;;;;;;;15.00;10.17;;;19.80;99.90;;;;;;5093064;28;20462;-78
2023/09/02 09:17:12;;;;;;;14.63;10.30;;;20.00;99.90;;;;;;5127194;27;20492;-77
2023/09/02 09:19:39;;;;;;;14.55;9.95;;;19.80;99.90;;;;;;5134318;27;20420;-78
2023/09/02 09:22:05;;;;;;;15.27;11.00;;;20.00;99.90;;;;;;5096687;28;20434;-77
2023/09/02 09:24:34;;;;;;;15.40;10.73;;;20.20;99.90;;;;;;5114599;28;20504;-77
2023/09/02 09:27:02;;;;;;;16.65;10.10;;;19.30;99.90;;;;;;5112963;28;20400;-77
2023/09/02 09:29:45;;;;;;;13.95;10.43;;;20.00;99.90;;;;;;5113198;28;20420;-78
2023/09/02 09:32:13;;;;;;;16.50;11.15;;;20.30;99.90;;;;;;5148235;27;20459;-78
2023/09/02 09:34:41;;;;;;;18.58;11.70;;;20.40;99.90;;;;;;5142455;27;20419;-78
2023/09/02 09:37:08;;;;;;;15.38;11.40;;;20.00;99.90;;;;;;5115772;28;20407;-78
2023/09/02 09:39:40;;;;;;;17.20;12.20;;;20.10;99.90;;;;;;5161924;27;20536;-76
2023/09/02 09:42:06;;;;;;;18.45;12.30;;;20.10;99.90;;;;;;5108310;28;20807;-77
2023/09/02 09:44:32;;;;;;;17.48;12.23;;;20.30;99.90;;;;;;5119053;28;20863;-77
2023/09/02 09:46:58;;;;;;;17.33;11.70;;;20.40;99.90;;;;;;5096702;28;20408;-77
2023/09/02 09:49:28;;;;;;;16.37;11.17;;;20.90;99.90;;;;;;5094508;28;20936;-77
2023/09/02 09:52:00;;;;;;;15.83;11.80;;;21.20;99.90;;;;;;5099136;28;20400;-77
2023/09/02 09:54:50;;;;;;;17.83;11.55;;;21.00;99.90;;;;;;5120762;28;20407;-77
2023/09/02 09:57:34;;;;;;;17.98;11.70;;;21.20;99.90;;;;;;5152821;27;20400;-77
2023/09/02 10:00:00;;;;;;;15.43;10.97;;;21.70;99.90;;;;;;5096311;28;20412;-77
2023/09/02 10:02:26;;;;;;;16.05;11.30;;;22.00;99.90;;;;;;5092471;27;20766;-77
2023/09/02 10:04:56;;;;;;;15.95;11.35;;;22.20;99.90;;;;;;5075570;28;20401;-78
2023/09/02 10:07:25;;;;;;;15.82;11.05;;;22.00;99.90;;;;;;5075196;28;20776;-77
2023/09/02 10:09:53;;;;;;;16.48;11.48;;;22.10;99.90;;;;;;5091507;28;20977;-77
2023/09/02 10:12:19;;;;;;;15.18;10.18;;;21.90;99.90;;;;;;5084263;28;20891;-77
2023/09/02 10:14:47;;;;;;;13.03;10.20;;;22.30;99.90;;;;;;5145446;27;20412;-77
2023/09/02 10:17:14;;;;;;;13.18;10.02;;;22.90;99.90;;;;;;5111977;28;20396;-77
2023/09/02 10:19:40;;;;;;;13.38;9.93;;;22.70;99.90;;;;;;5094893;28;20983;-76
2023/09/02 10:22:07;;;;;;;13.40;9.70;;;22.80;99.90;;;;;;5111852;28;20895;-76
2023/09/02 10:24:35;;;;;;;15.90;9.57;;;22.60;99.90;;;;;;5112252;28;20404;-76
2023/09/02 10:27:08;;;;;;;13.82;9.50;;;22.40;99.90;;;;;;5090872;28;20906;-77
2023/09/02 10:29:40;;;;;;;13.63;9.18;;;22.40;99.90;;;;;;5074449;28;20417;-77
2023/09/02 10:32:12;;;;;;;13.32;9.13;;;21.80;99.90;;;;;;5074384;28;20470;-76
2023/09/02 10:34:47;;;;;;;12.10;8.35;;;22.40;99.90;;;;;;5104685;28;20594;-77
2023/09/02 10:37:16;;;;;;;10.82;8.20;;;22.40;99.90;;;;;;5094475;28;20714;-77
2023/09/02 10:39:55;;;;;;;13.73;8.40;;;22.70;99.90;;;;;;5111361;28;20400;-77
2023/09/02 10:42:23;;;;;;;13.40;8.57;;;22.70;99.90;;;;;;5098272;28;20535;-77
2023/09/02 10:44:49;;;;;;;13.07;8.98;;;22.80;99.90;;;;;;5074020;28;20406;-77
2023/09/02 10:47:14;;;;;;;11.65;8.40;;;23.00;99.90;;;;;;5108320;28;20406;-77
2023/09/02 10:49:41;;;;;;;11.82;7.65;;;23.20;99.90;;;;;;5108466;28;20426;-78
2023/09/02 10:52:08;;;;;;;11.20;8.00;;;23.40;99.90;;;;;;5074868;28;20394;-78
2023/09/02 10:54:58;;;;;;;11.40;7.80;;;23.50;99.90;;;;;;5077175;28;20413;-77
2023/09/02 10:57:24;;;;;;;11.80;7.50;;;23.70;99.90;;;;;;5085674;28;20460;-77
2023/09/02 10:59:50;;;;;;;11.10;6.30;;;23.60;99.90;;;;;;5094689;28;20449;-77
2023/09/02 11:02:39;;;;;;;9.93;6.73;;;24.00;99.90;;;;;;5094887;28;20396;-77
2023/09/02 11:05:05;;;;;;;9.57;6.97;;;24.20;99.90;;;;;;5111956;28;20404;-77
2023/09/02 11:07:33;;;;;;;11.23;7.28;;;24.20;99.90;;;;;;5111371;28;20400;-78
2023/09/02 11:10:00;;;;;;;10.25;7.47;;;23.70;99.90;;;;;;5109670;28;20421;-78
2023/09/02 11:12:27;;;;;;;12.20;7.82;;;23.20;99.90;;;;;;5094535;28;20392;-77
2023/09/02 11:15:08;;;;;;;10.43;7.30;;;22.70;99.90;;;;;;5094647;28;20824;-78
2023/09/02 11:17:38;;;;;;;10.15;7.35;;;22.50;99.90;;;;;;5111020;28;20748;-77
2023/09/02 11:20:08;;;;;;;11.73;8.05;;;22.20;99.90;;;;;;5128402;28;20491;-77
2023/09/02 11:22:59;;;;;;;12.18;7.30;;;22.20;99.90;;;;;;5107483;28;20424;-77
2023/09/02 11:25:41;;;;;;;10.05;7.28;;;22.00;99.90;;;;;;5112271;27;20405;-77
2023/09/02 11:28:19;;;;;;;9.57;6.40;;;21.70;99.90;;;;;;5061447;28;20433;-77
2023/09/02 11:31:09;;;;;;;10.20;6.28;;;22.00;99.90;;;;;;5095033;28;20406;-77
2023/09/02 11:33:40;;;;;;;9.30;6.18;;;22.30;99.90;;;;;;5101804;28;20415;-77
2023/09/02 11:36:08;;;;;;;9.25;6.00;;;22.50;99.90;;;;;;5098539;28;20460;-77
2023/09/02 11:38:34;;;;;;;8.90;6.25;;;22.70;99.90;;;;;;5115975;27;20407;-77
2023/09/02 11:41:01;;;;;;;9.45;6.85;;;22.90;99.90;;;;;;5099120;28;20400;-78
2023/09/02 11:43:33;;;;;;;8.48;5.82;;;23.10;99.90;;;;;;5098205;28;20483;-78
2023/09/02 11:46:00;;;;;;;10.07;6.40;;;23.40;99.90;;;;;;5115921;28;20460;-78
2023/09/02 11:48:30;;;;;;;8.55;5.63;;;23.60;99.90;;;;;;5101688;28;20769;-78
2023/09/02 11:50:59;;;;;;;7.95;5.57;;;23.90;99.90;;;;;;5128537;27;20397;-78
2023/09/02 11:53:29;;;;;;;8.65;5.07;;;23.90;99.90;;;;;;5094568;28;20750;-77
2023/09/02 11:55:56;;;;;;;8.93;6.33;;;24.00;99.90;;;;;;5066103;28;20969;-78
2023/09/02 11:58:22;;;;;;;9.50;6.40;;;23.90;99.90;;;;;;5115021;28;20464;-78
2023/09/02 12:00:48;;;;;;;9.43;6.43;;;23.70;99.90;;;;;;5097629;28;20414;-77
2023/09/02 12:03:21;;;;;;;10.48;6.38;;;23.50;99.90;;;;;;5096139;28;20422;-76
2023/09/02 12:05:50;;;;;;;7.50;5.50;;;23.20;99.90;;;;;;5094506;28;20402;-77
2023/09/02 12:08:17;;;;;;;11.25;5.88;;;23.30;99.90;;;;;;5094616;28;20746;-77
2023/09/02 12:10:47;;;;;;;8.63;5.55;;;23.50;99.90;;;;;;5076760;28;20401;-77
2023/09/02 12:13:14;;;;;;;9.00;5.53;;;23.90;99.90;;;;;;5092792;28;20414;-78
2023/09/02 12:15:40;;;;;;;7.20;4.45;;;23.90;99.90;;;;;;5077260;28;20454;-77
2023/09/02 12:18:06;;;;;;;9.23;4.82;;;23.90;99.90;;;;;;5094501;28;20397;-77
2023/09/02 12:20:32;;;;;;;9.15;4.63;;;24.20;99.90;;;;;;5094234;28;20405;-77
2023/09/02 12:22:58;;;;;;;9.32;4.65;;;24.10;99.90;;;;;;5093620;28;20890;-76
2023/09/02 12:25:24;;;;;;;6.10;3.72;;;24.20;99.90;;;;;;5096793;28;20425;-77
2023/09/02 12:27:51;;;;;;;6.40;3.80;;;24.60;99.90;;;;;;5114708;28;20899;-77
2023/09/02 12:30:32;;;;;;;6.20;4.00;;;24.50;99.90;;;;;;5114405;28;20928;-75
2023/09/02 12:32:58;;;;;;;7.50;4.00;;;24.80;99.90;;;;;;5112264;28;20412;-75
2023/09/02 12:35:24;;;;;;;7.07;4.47;;;24.60;99.90;;;;;;5114339;28;20903;-75
2023/09/02 12:38:04;;;;;;;8.43;5.00;;;24.50;99.90;;;;;;5114461;28;20403;-75
2023/09/02 12:40:31;;;;;;;7.78;4.85;;;24.30;99.90;;;;;;5102768;28;20486;-75